Time,TemperatureF,DewpointF,PressureIn,WindDirection,WindDirectionDegrees,WindSpeedMPH,WindSpeedGustMPH,Humidity,HourlyPrecipIn,Conditions,Clouds,dailyrainin,SolarRadiationWatts/m^2,SoftwareType,DateUTC
2013-02-25 03:00:00,21.0,19.0,-100.00,NNE,22,2.0,-999.0,90,-99.99,,,-99.99,0.000000,,2013-02-25 08:00:00,
2013-02-25 03:42:00,21.0,19.0,-100.00,NNE,22,2.0,-999.0,90,-99.99,,,-99.99,0.000000,,2013-02-25 08:42:00,
2013-02-25 03:52:00,21.0,19.0,-100.00,NNE,22,2.0,-999.0,90,-99.99,,,-99.99,0.000000,,2013-02-25 08:52:00,
2013-02-25 06:00:00,20.0,17.0,-100.00,NNE,22,3.0,-999.0,90,-99.99,,,-99.99,0.000000,,2013-02-25 11:00:00,
2013-02-25 06:42:00,20.0,17.0,-100.00,NNE,22,3.0,-999.0,90,-99.99,,,-99.99,0.000000,,2013-02-25 11:42:00,
2013-02-25 06:52:00,20.0,17.0,-100.00,NNE,22,3.0,-999.0,90,-99.99,,,-99.99,0.000000,,2013-02-25 11:52:00,
2013-02-25 09:00:00,23.0,20.0,-100.00,NNE,22,4.0,-999.0,88,-99.99,,,-99.99,89.320000,,2013-02-25 14:00:00,
2013-02-25 09:42:00,23.0,20.0,-100.00,NNE,22,4.0,-999.0,88,-99.99,,,-99.99,89.320000,,2013-02-25 14:42:00,
2013-02-25 09:52:00,23.0,20.0,-100.00,NNE,22,4.0,-999.0,88,-99.99,,,-99.99,89.320000,,2013-02-25 14:52:00,
2013-02-25 12:00:00,35.0,21.0,-100.00,North,0,6.0,-999.0,57,-99.99,,,-99.99,487.200012,,2013-02-25 17:00:00,
2013-02-25 12:42:00,35.0,21.0,-100.00,North,0,6.0,-999.0,57,-99.99,,,-99.99,487.200012,,2013-02-25 17:42:00,
2013-02-25 12:52:00,35.0,21.0,-100.00,North,0,6.0,-999.0,57,-99.99,,,-99.99,487.200012,,2013-02-25 17:52:00,
2013-02-25 15:00:00,39.0,19.0,-100.00,North,0,6.0,-999.0,44,-99.99,,,-99.99,487.200012,,2013-02-25 20:00:00,
2013-02-25 15:42:00,39.0,19.0,-100.00,North,0,6.0,-999.0,44,-99.99,,,-99.99,487.200012,,2013-02-25 20:42:00,
2013-02-25 15:52:00,39.0,19.0,-100.00,North,0,6.0,-999.0,44,-99.99,,,-99.99,487.200012,,2013-02-25 20:52:00,
2013-02-25 18:00:00,39.0,20.0,-100.00,North,0,6.0,-999.0,47,-99.99,,,-99.99,99.760002,,2013-02-25 23:00:00,
2013-02-25 18:42:00,39.0,20.0,-100.00,North,0,6.0,-999.0,47,-99.99,,,-99.99,99.760002,,2013-02-25 23:42:00,
2013-02-25 18:52:00,39.0,20.0,-100.00,North,0,6.0,-999.0,47,-99.99,,,-99.99,99.760002,,2013-02-25 23:52:00,
2013-02-25 21:00:00,34.0,21.0,-100.00,North,0,8.0,-999.0,58,-99.99,,,-99.99,0.000000,,2013-02-26 02:00:00,
2013-02-25 21:42:00,34.0,21.0,-100.00,North,0,8.0,-999.0,58,-99.99,,,-99.99,0.000000,,2013-02-26 02:42:00,
2013-02-25 21:52:00,34.0,21.0,-100.00,North,0,8.0,-999.0,58,-99.99,,,-99.99,0.000000,,2013-02-26 02:52:00,